Kolding, Denmark
Current Conditions -  °F | °C
As of 12:20 PM on Sunday 21 Dec 2014 (Local Time) from EKSP Reporting Station
Broken Clouds Broken Clouds  
Wind Chill: 38°   Ceiling: 2500
Heat Index: 45°   Visibility: 6mi
Dew Point: 41°   Wind: 14mph
Humidity: 87%   Direction: 230°SW
Pressure: 30"   Gusts: NA
Location:  55.49°N, 9.47°E
Report Text: EKSP 211120Z 23012KT 9999 SCT015 BKN025 BKN120 07/05 Q1016
Loading
Personal Weather Stations






























Interactive Weather Map New forecast layout! Learn more

10-Day Weather Forecast

Advertisements
Track Severe Weather on mobile